Time;durP1;ratioP1;P1;durP2;ratioP2;P2;SDS_P1;SDS_P2;PMS_P1;PMS_P2;Temp;Humidity;BMP_temperature;BMP_pressure;BME280_temperature;BME280_humidity;BME280_pressure;Samples;Min_cycle;Max_cycle;Signal;HPM_P1;HPM_P2
2021/06/14 00:00:09;;;;;;;1999.90;999.90;;;8.70;99.90;;;;;;5053167;28;20184;-57
2021/06/14 00:02:37;;;;;;;1999.90;999.90;;;8.70;99.90;;;;;;5053208;28;20251;-56
2021/06/14 00:05:06;;;;;;;1999.90;999.90;;;8.80;99.90;;;;;;5053674;28;20230;-56
2021/06/14 00:07:32;;;;;;;1999.90;999.90;;;8.70;99.90;;;;;;5053430;28;20532;-58
2021/06/14 00:09:59;;;;;;;1999.90;999.90;;;8.70;99.90;;;;;;5053222;28;20220;-58
2021/06/14 00:12:26;;;;;;;1999.90;999.90;;;8.70;99.90;;;;;;5053400;28;20347;-56
2021/06/14 00:14:53;;;;;;;1999.90;999.90;;;8.60;99.90;;;;;;5052797;28;20168;-58
2021/06/14 00:17:20;;;;;;;1999.90;999.90;;;8.50;99.90;;;;;;5053274;28;20211;-56
2021/06/14 00:19:48;;;;;;;1999.90;999.90;;;8.50;99.90;;;;;;5053291;28;20176;-58
2021/06/14 00:22:17;;;;;;;1999.90;999.90;;;8.40;99.90;;;;;;5052922;28;20183;-58
2021/06/14 00:24:44;;;;;;;1999.90;999.90;;;8.40;99.90;;;;;;5052662;28;20208;-57
2021/06/14 00:27:12;;;;;;;1999.90;999.90;;;8.40;99.90;;;;;;5053104;28;20231;-57
2021/06/14 00:29:39;;;;;;;1999.90;999.90;;;8.40;99.90;;;;;;5052550;28;20164;-57
2021/06/14 00:32:07;;;;;;;1999.90;999.90;;;8.50;99.90;;;;;;5052760;28;20165;-58
2021/06/14 00:34:34;;;;;;;1999.90;999.90;;;8.50;99.90;;;;;;5053411;28;20172;-57
2021/06/14 00:37:01;;;;;;;1999.90;999.90;;;8.50;99.90;;;;;;5052576;28;20184;-58
2021/06/14 00:39:28;;;;;;;1999.90;999.90;;;8.50;99.90;;;;;;5052742;28;20566;-57
2021/06/14 00:41:54;;;;;;;1999.90;999.90;;;8.50;99.90;;;;;;5052511;28;20172;-57
2021/06/14 00:44:21;;;;;;;1999.90;999.90;;;8.40;99.90;;;;;;5052351;28;20247;-58
2021/06/14 00:46:48;;;;;;;1999.90;999.90;;;8.40;99.90;;;;;;5051745;28;20184;-57
2021/06/14 00:49:15;;;;;;;1999.90;999.90;;;8.40;99.90;;;;;;5052771;28;20280;-58
2021/06/14 00:51:41;;;;;;;1999.90;999.90;;;8.30;99.90;;;;;;5052251;28;20689;-58
2021/06/14 00:54:08;;;;;;;1999.90;999.90;;;8.40;99.90;;;;;;5052333;28;20165;-58
2021/06/14 00:56:35;;;;;;;1999.90;999.90;;;8.40;99.90;;;;;;5052080;28;20176;-58
2021/06/14 00:59:02;;;;;;;1999.90;999.90;;;8.40;99.90;;;;;;5052272;28;20199;-58
2021/06/14 01:01:29;;;;;;;1999.90;999.90;;;8.50;99.90;;;;;;5052344;28;20188;-58
2021/06/14 01:03:56;;;;;;;1999.90;999.90;;;8.40;99.90;;;;;;5052171;28;20179;-58
2021/06/14 01:06:23;;;;;;;1999.90;999.90;;;8.50;99.90;;;;;;5052062;28;20291;-58
2021/06/14 01:08:53;;;;;;;1999.90;999.90;;;8.50;99.90;;;;;;5051874;28;20178;-58
2021/06/14 01:11:27;;;;;;;1999.90;999.90;;;8.50;99.90;;;;;;5052052;28;20294;-56
2021/06/14 01:14:08;;;;;;;1999.90;999.90;;;8.60;99.90;;;;;;5051690;28;20186;-59
2021/06/14 01:16:51;;;;;;;1999.90;999.90;;;8.50;99.90;;;;;;5052157;28;20161;-59
2021/06/14 01:19:36;;;;;;;1999.90;999.90;;;8.50;99.90;;;;;;5051740;28;20157;-58
2021/06/14 01:22:40;;;;;;;1999.90;999.90;;;8.40;99.90;;;;;;5052004;28;20157;-58
2021/06/14 01:25:09;;;;;;;1999.90;999.90;;;8.40;99.90;;;;;;5051702;28;20211;-57
2021/06/14 01:27:52;;;;;;;1999.90;999.90;;;8.40;99.90;;;;;;5051872;28;20179;-59
2021/06/14 01:30:22;;;;;;;1999.90;999.90;;;8.40;99.90;;;;;;5051376;28;20165;-58
2021/06/14 01:32:49;;;;;;;1999.90;999.90;;;8.30;99.90;;;;;;5051797;28;20522;-57
2021/06/14 01:35:30;;;;;;;1999.90;999.90;;;8.30;99.90;;;;;;5051375;28;20188;-58
2021/06/14 01:38:00;;;;;;;1999.90;999.90;;;8.30;99.90;;;;;;5051842;28;20167;-58
2021/06/14 01:40:28;;;;;;;1999.90;999.90;;;8.20;99.90;;;;;;5051329;28;20158;-59
2021/06/14 01:42:58;;;;;;;1999.90;999.90;;;8.10;99.90;;;;;;5051506;28;20171;-58
2021/06/14 01:45:26;;;;;;;1999.90;999.90;;;8.10;99.90;;;;;;5051656;28;20198;-58
2021/06/14 01:47:54;;;;;;;1999.90;999.90;;;8.10;99.90;;;;;;5051343;28;20179;-59
2021/06/14 01:50:22;;;;;;;1999.90;999.90;;;8.00;99.90;;;;;;5051196;28;20700;-58
2021/06/14 01:52:49;;;;;;;1999.90;999.90;;;8.00;99.90;;;;;;5051321;28;20200;-59
2021/06/14 01:55:20;;;;;;;1999.90;999.90;;;7.90;99.90;;;;;;5051165;28;20659;-58
2021/06/14 01:57:48;;;;;;;1999.90;999.90;;;8.00;99.90;;;;;;5050076;28;20171;-59
2021/06/14 02:00:15;;;;;;;1999.90;999.90;;;8.00;99.90;;;;;;5051248;28;20169;-58
2021/06/14 02:02:45;;;;;;;1999.90;999.90;;;8.10;99.90;;;;;;5051761;28;20175;-59
2021/06/14 02:05:13;;;;;;;1999.90;999.90;;;8.00;99.90;;;;;;5051215;28;20197;-57
2021/06/14 02:07:42;;;;;;;1999.90;999.90;;;8.00;99.90;;;;;;5050985;28;20169;-58
2021/06/14 02:10:10;;;;;;;1999.90;999.90;;;8.00;99.90;;;;;;5050669;28;20236;-58
2021/06/14 02:12:46;;;;;;;1999.90;999.90;;;8.00;99.90;;;;;;5050930;28;20608;-58
2021/06/14 02:15:16;;;;;;;1999.90;999.90;;;8.00;99.90;;;;;;5050771;28;20582;-58
2021/06/14 02:17:44;;;;;;;1999.90;999.90;;;7.90;99.90;;;;;;5050734;28;20164;-59
2021/06/14 02:20:12;;;;;;;1999.90;999.90;;;7.80;99.90;;;;;;5051003;28;20173;-58
2021/06/14 02:22:39;;;;;;;1999.90;999.90;;;7.80;99.90;;;;;;5050886;28;20176;-57
2021/06/14 02:25:09;;;;;;;1999.90;999.90;;;7.90;99.90;;;;;;5050670;28;20196;-58
2021/06/14 02:27:36;;;;;;;1999.90;999.90;;;7.90;99.90;;;;;;5051013;28;20247;-58
2021/06/14 02:30:19;;;;;;;1999.90;999.90;;;8.00;99.90;;;;;;5050772;28;20172;-59
2021/06/14 02:32:48;;;;;;;1999.90;999.90;;;7.90;99.90;;;;;;5050545;28;20296;-58
2021/06/14 02:35:15;;;;;;;1999.90;999.90;;;7.90;99.90;;;;;;5050908;28;20171;-56
2021/06/14 02:37:54;;;;;;;1999.90;999.90;;;7.80;99.90;;;;;;5050532;28;20179;-58
2021/06/14 02:40:24;;;;;;;1999.90;999.90;;;7.80;99.90;;;;;;5050454;28;20157;-57
2021/06/14 02:42:52;;;;;;;1999.90;999.90;;;7.80;99.90;;;;;;5050644;28;20184;-58
2021/06/14 02:45:19;;;;;;;1999.90;999.90;;;7.80;99.90;;;;;;5050213;28;20201;-58
2021/06/14 02:47:47;;;;;;;1999.90;999.90;;;7.90;99.90;;;;;;5050485;28;20531;-56
2021/06/14 02:50:18;;;;;;;1999.90;999.90;;;7.90;99.90;;;;;;5050696;28;20183;-56
2021/06/14 02:52:49;;;;;;;1999.90;999.90;;;7.80;99.90;;;;;;5050448;28;20157;-58
2021/06/14 02:55:19;;;;;;;1999.90;999.90;;;7.80;99.90;;;;;;5050407;28;20165;-58
2021/06/14 02:57:52;;;;;;;1999.90;999.90;;;7.80;99.90;;;;;;5050650;28;20171;-58
2021/06/14 03:00:22;;;;;;;1999.90;999.90;;;7.80;99.90;;;;;;5050366;28;20168;-58
2021/06/14 03:02:50;;;;;;;1999.90;999.90;;;7.90;99.90;;;;;;5032378;28;20175;-57
2021/06/14 03:05:19;;;;;;;1999.90;999.90;;;7.90;99.90;;;;;;5049997;28;20455;-57
2021/06/14 03:07:46;;;;;;;1999.90;999.90;;;7.90;99.90;;;;;;5050249;28;20174;-59
2021/06/14 03:10:13;;;;;;;1999.90;999.90;;;7.80;99.90;;;;;;5052111;28;20219;-59
2021/06/14 03:12:41;;;;;;;1999.90;999.90;;;7.90;99.90;;;;;;5053852;28;20173;-59
2021/06/14 03:15:08;;;;;;;1999.90;999.90;;;7.80;99.90;;;;;;5054369;28;20165;-57
2021/06/14 03:17:36;;;;;;;1999.90;999.90;;;7.70;99.90;;;;;;5054246;28;20173;-57
2021/06/14 03:20:06;;;;;;;1999.90;999.90;;;7.70;99.90;;;;;;5054242;28;20518;-57
2021/06/14 03:22:33;;;;;;;1999.90;999.90;;;7.70;99.90;;;;;;5054110;28;20176;-58
2021/06/14 03:25:00;;;;;;;1999.90;999.90;;;7.70;99.90;;;;;;5054121;28;20676;-57
2021/06/14 03:27:27;;;;;;;1999.90;999.90;;;7.60;99.90;;;;;;5053748;28;20563;-57
2021/06/14 03:29:55;;;;;;;1999.90;999.90;;;7.70;99.90;;;;;;5053854;28;20172;-58
2021/06/14 03:32:23;;;;;;;1999.90;999.90;;;7.70;99.90;;;;;;5054056;28;20170;-57
2021/06/14 03:34:51;;;;;;;1999.90;999.90;;;7.60;99.90;;;;;;5053450;28;20168;-56
2021/06/14 03:37:18;;;;;;;1999.90;999.90;;;7.60;99.90;;;;;;5053663;28;20160;-57
2021/06/14 03:39:44;;;;;;;1999.90;999.90;;;7.60;99.90;;;;;;5054107;28;20197;-57
2021/06/14 03:42:20;;;;;;;1999.90;999.90;;;7.50;99.90;;;;;;5035467;28;20218;-58
2021/06/14 03:44:47;;;;;;;1999.90;999.90;;;7.50;99.90;;;;;;5053114;28;20225;-58
2021/06/14 03:47:13;;;;;;;1999.90;999.90;;;7.50;99.90;;;;;;5053698;28;20199;-57
2021/06/14 03:49:40;;;;;;;1999.90;999.90;;;7.50;99.90;;;;;;5053280;28;20230;-57
2021/06/14 03:52:07;;;;;;;1999.90;999.90;;;7.50;99.90;;;;;;5053462;28;20635;-58
2021/06/14 03:54:34;;;;;;;1999.90;999.90;;;7.40;99.90;;;;;;5053335;28;20251;-58
2021/06/14 03:57:01;;;;;;;1999.90;999.90;;;7.40;99.90;;;;;;5053385;28;20555;-57
2021/06/14 03:59:27;;;;;;;1999.90;999.90;;;7.40;99.90;;;;;;5053126;28;20169;-58
2021/06/14 04:01:54;;;;;;;1999.90;999.90;;;7.40;99.90;;;;;;5053226;28;20177;-58
2021/06/14 04:06:51;;;;;;;1999.90;999.90;;;7.30;99.90;;;;;;5053042;28;20535;-57
2021/06/14 04:09:18;;;;;;;1999.90;999.90;;;7.40;99.90;;;;;;5053049;28;20181;-58
2021/06/14 04:11:44;;;;;;;1999.90;999.90;;;7.40;99.90;;;;;;5052749;28;20247;-57
2021/06/14 04:14:11;;;;;;;1999.90;999.90;;;7.40;99.90;;;;;;5053139;28;20188;-59
2021/06/14 04:16:38;;;;;;;1999.90;999.90;;;7.40;99.90;;;;;;5052897;28;20221;-57
2021/06/14 04:19:05;;;;;;;1999.90;999.90;;;7.50;99.90;;;;;;5053135;28;20185;-59
2021/06/14 04:21:32;;;;;;;1999.90;999.90;;;7.50;99.90;;;;;;5051881;28;20643;-59
2021/06/14 04:23:59;;;;;;;1999.90;999.90;;;7.50;99.90;;;;;;5053213;28;20189;-58
2021/06/14 04:26:25;;;;;;;1999.90;999.90;;;7.50;99.90;;;;;;5052679;28;20204;-59
2021/06/14 04:28:52;;;;;;;1999.90;999.90;;;7.60;99.90;;;;;;5052946;28;20173;-59
2021/06/14 04:31:19;;;;;;;1999.90;999.90;;;7.50;99.90;;;;;;5052833;28;20267;-58
2021/06/14 04:33:46;;;;;;;1999.90;999.90;;;7.50;99.90;;;;;;5052617;28;20188;-58
2021/06/14 04:36:12;;;;;;;1999.90;999.90;;;7.60;99.90;;;;;;5052957;28;20545;-59
2021/06/14 04:38:39;;;;;;;1999.90;999.90;;;7.60;99.90;;;;;;5052428;28;20216;-59
2021/06/14 04:41:06;;;;;;;1999.90;999.90;;;7.50;99.90;;;;;;5052518;28;20481;-57
2021/06/14 04:43:33;;;;;;;1999.90;999.90;;;7.50;99.90;;;;;;5052566;28;20173;-55
2021/06/14 04:46:00;;;;;;;1999.90;999.90;;;7.50;99.90;;;;;;5052309;28;20223;-56
2021/06/14 04:48:26;;;;;;;1999.90;999.90;;;7.50;99.90;;;;;;5052166;28;20223;-56
2021/06/14 04:50:53;;;;;;;1999.90;999.90;;;7.40;99.90;;;;;;5052580;28;20168;-58
2021/06/14 04:53:20;;;;;;;1999.90;999.90;;;7.40;99.90;;;;;;5052077;28;20260;-57
2021/06/14 04:55:47;;;;;;;1999.90;999.90;;;7.30;99.90;;;;;;5052030;28;20177;-57
2021/06/14 04:58:14;;;;;;;1999.90;999.90;;;7.30;99.90;;;;;;5052194;28;20323;-56
2021/06/14 05:00:41;;;;;;;1999.90;999.90;;;7.30;99.90;;;;;;5051904;28;20259;-55
2021/06/14 05:03:08;;;;;;;1999.90;999.90;;;7.30;99.90;;;;;;5051931;28;20172;-56
2021/06/14 05:05:34;;;;;;;1999.90;999.90;;;7.30;99.90;;;;;;5034013;28;20654;-56
2021/06/14 05:08:02;;;;;;;1999.90;999.90;;;7.30;99.90;;;;;;5051442;28;20175;-58
2021/06/14 05:10:28;;;;;;;1999.90;999.90;;;7.30;99.90;;;;;;5051298;28;20307;-57
2021/06/14 05:12:55;;;;;;;1999.90;999.90;;;7.30;99.90;;;;;;5051761;28;20168;-59
2021/06/14 05:15:22;;;;;;;1999.90;999.90;;;7.20;99.90;;;;;;5051562;28;20164;-58
2021/06/14 05:17:49;;;;;;;1999.90;999.90;;;7.30;99.90;;;;;;5052071;28;20690;-58
2021/06/14 05:20:17;;;;;;;1999.90;999.90;;;7.30;99.90;;;;;;5051979;28;20678;-57
2021/06/14 05:22:44;;;;;;;1999.90;999.90;;;7.30;99.90;;;;;;5051655;28;20180;-57
2021/06/14 05:25:15;;;;;;;1999.90;999.90;;;7.30;99.90;;;;;;5051145;28;20196;-58
2021/06/14 05:27:42;;;;;;;1999.90;999.90;;;7.40;99.90;;;;;;5051460;28;20168;-57
2021/06/14 05:30:09;;;;;;;1999.90;999.90;;;7.40;99.90;;;;;;5051311;28;20175;-56
2021/06/14 05:32:38;;;;;;;1999.90;999.90;;;7.30;99.90;;;;;;5051409;28;20163;-58
2021/06/14 05:35:06;;;;;;;1999.90;999.90;;;7.30;99.90;;;;;;5051369;28;20521;-58
2021/06/14 05:37:33;;;;;;;1999.90;999.90;;;7.30;99.90;;;;;;5050815;28;20205;-57
2021/06/14 05:40:00;;;;;;;1999.90;999.90;;;7.30;99.90;;;;;;5051124;28;20245;-57
2021/06/14 05:42:27;;;;;;;1999.90;999.90;;;7.30;99.90;;;;;;5051290;28;20176;-57
2021/06/14 05:44:54;;;;;;;1999.90;999.90;;;7.30;99.90;;;;;;5050981;28;20192;-56
2021/06/14 05:47:20;;;;;;;1999.90;999.90;;;7.30;99.90;;;;;;5050529;28;20177;-58
2021/06/14 05:49:47;;;;;;;1999.90;999.90;;;7.30;99.90;;;;;;5050853;28;20535;-57
2021/06/14 05:52:14;;;;;;;1999.90;999.90;;;7.30;99.90;;;;;;5050670;28;20179;-58
2021/06/14 05:54:41;;;;;;;1999.90;999.90;;;7.30;99.90;;;;;;5050859;28;20176;-58
2021/06/14 05:57:08;;;;;;;1999.90;999.90;;;7.30;99.90;;;;;;5051146;28;20168;-57
2021/06/14 05:59:35;;;;;;;1999.90;999.90;;;7.30;99.90;;;;;;5050678;28;20166;-57
2021/06/14 06:02:04;;;;;;;1999.90;999.90;;;7.30;99.90;;;;;;5051056;28;20177;-58
2021/06/14 06:04:31;;;;;;;1999.90;999.90;;;7.40;99.90;;;;;;5050271;28;20280;-58
2021/06/14 06:06:58;;;;;;;1999.90;999.90;;;7.40;99.90;;;;;;5050106;28;20198;-51
2021/06/14 06:09:25;;;;;;;1999.90;999.90;;;7.50;99.90;;;;;;5050570;28;20612;-55
2021/06/14 06:11:52;;;;;;;1999.90;999.90;;;7.40;99.90;;;;;;5050141;28;20226;-48
2021/06/14 06:14:19;;;;;;;1999.90;999.90;;;7.60;99.90;;;;;;5050010;28;20629;-53
2021/06/14 06:16:45;;;;;;;1999.90;999.90;;;7.60;99.90;;;;;;5050443;28;20209;-52
2021/06/14 06:19:12;;;;;;;1999.90;999.90;;;7.60;99.90;;;;;;5050389;28;20176;-60
2021/06/14 06:21:39;;;;;;;1999.90;999.90;;;7.80;99.90;;;;;;5050806;28;20194;-48
2021/06/14 06:24:06;;;;;;;1999.90;999.90;;;8.00;99.90;;;;;;5050663;28;20183;-43
2021/06/14 06:26:33;;;;;;;1999.90;999.90;;;9.30;99.90;;;;;;5032206;28;20610;-45
2021/06/14 06:29:00;;;;;;;1999.90;999.90;;;9.90;99.90;;;;;;5050566;28;20176;-46
2021/06/14 06:31:27;;;;;;;1999.90;999.90;;;9.80;99.90;;;;;;5050667;28;20173;-50
2021/06/14 06:33:54;;;;;;;1999.90;999.90;;;9.60;99.90;;;;;;5050068;28;20605;-46
2021/06/14 06:36:20;;;;;;;1999.90;999.90;;;9.40;99.90;;;;;;5049965;28;20177;-58
2021/06/14 06:38:47;;;;;;;1999.90;999.90;;;9.20;99.90;;;;;;5050217;28;20179;-57
2021/06/14 06:54:22;;;;;;;1999.90;999.90;;;8.90;99.90;;;;;;6129574;23;20226;-44
2021/06/14 06:56:53;;;;;;;1999.90;999.90;;;9.20;99.90;;;;;;6128401;23;20162;-38
2021/06/14 06:59:21;;;;;;;1999.90;999.90;;;9.30;99.90;;;;;;6130458;23;20202;-39
2021/06/14 07:01:49;;;;;;;1999.90;999.90;;;9.30;99.90;;;;;;6104682;23;20179;-39
2021/06/14 07:04:16;;;;;;;1999.90;999.90;;;9.20;99.90;;;;;;6130870;23;20181;-41
2021/06/14 07:06:43;;;;;;;1999.90;999.90;;;9.30;99.90;;;;;;6130570;23;20162;-39
2021/06/14 07:09:11;;;;;;;1999.90;999.90;;;9.20;99.90;;;;;;6130703;23;20490;-40
2021/06/14 07:11:38;;;;;;;1999.90;999.90;;;9.20;99.90;;;;;;6130624;23;20205;-40
2021/06/14 07:14:05;;;;;;;1999.90;999.90;;;9.20;99.90;;;;;;6130570;23;20154;-40
2021/06/14 07:16:34;;;;;;;1999.90;999.90;;;9.20;99.90;;;;;;6130455;23;20244;-40
2021/06/14 07:19:01;;;;;;;1999.90;999.90;;;9.30;99.90;;;;;;6130592;23;20154;-42
2021/06/14 07:21:29;;;;;;;1999.90;999.90;;;9.30;99.90;;;;;;6105221;23;20653;-41
2021/06/14 07:23:56;;;;;;;1999.90;999.90;;;9.20;99.90;;;;;;6130809;23;20184;-41
2021/06/14 07:26:24;;;;;;;1999.90;999.90;;;9.20;99.90;;;;;;6130725;23;20154;-49
2021/06/14 07:28:51;;;;;;;1999.90;999.90;;;9.30;99.90;;;;;;6130626;23;20162;-41
2021/06/14 07:31:21;;;;;;;1999.90;999.90;;;9.50;99.90;;;;;;6130656;23;20150;-41
2021/06/14 07:33:48;;;;;;;1999.90;999.90;;;9.60;99.90;;;;;;6130816;23;20190;-44
2021/06/14 07:36:16;;;;;;;1999.90;999.90;;;9.90;99.90;;;;;;6130500;23;20578;-46
2021/06/14 07:38:43;;;;;;;1999.90;999.90;;;9.60;99.90;;;;;;6130267;23;20159;-44
2021/06/14 07:41:11;;;;;;;1999.90;999.90;;;9.80;99.90;;;;;;6130636;23;20154;-44
2021/06/14 07:43:38;;;;;;;1999.90;999.90;;;9.80;99.90;;;;;;6130536;23;20182;-53
2021/06/14 07:46:05;;;;;;;1999.90;999.90;;;9.90;99.90;;;;;;6129114;23;20253;-52
2021/06/14 07:48:31;;;;;;;1999.90;999.90;;;10.00;99.90;;;;;;6131079;23;20149;-44
2021/06/14 07:50:59;;;;;;;1999.90;999.90;;;10.10;99.90;;;;;;6130629;23;20151;-44
2021/06/14 07:53:26;;;;;;;1999.90;999.90;;;10.20;99.90;;;;;;6128836;23;20191;-42
2021/06/14 07:55:55;;;;;;;1999.90;999.90;;;10.60;99.90;;;;;;6124723;23;20587;-45
2021/06/14 07:58:22;;;;;;;1999.90;999.90;;;10.60;99.90;;;;;;6124267;23;20234;-44
2021/06/14 08:00:48;;;;;;;1999.90;999.90;;;10.60;99.90;;;;;;6123358;23;20147;-52
2021/06/14 08:03:15;;;;;;;1999.90;999.90;;;10.60;99.90;;;;;;6124147;23;20193;-62
2021/06/14 08:05:44;;;;;;;1999.90;999.90;;;10.60;99.90;;;;;;6123993;23;20266;-47
2021/06/14 08:08:11;;;;;;;1999.90;999.90;;;10.70;99.90;;;;;;6123920;23;20174;-44
2021/06/14 08:10:38;;;;;;;1999.90;999.90;;;10.70;99.90;;;;;;6124313;23;20151;-45
2021/06/14 08:13:06;;;;;;;1999.90;999.90;;;11.00;99.90;;;;;;6123725;23;20147;-46
2021/06/14 08:15:35;;;;;;;1999.90;999.90;;;11.00;99.90;;;;;;6124047;23;20162;-45
2021/06/14 08:18:25;;;;;;;1999.90;999.90;;;11.00;99.90;;;;;;6098773;23;20225;-46
2021/06/14 08:26:27;;;;;;;1999.90;999.90;;;11.30;99.90;;;;;;6123716;23;20146;-46
2021/06/14 08:28:57;;;;;;;1999.90;999.90;;;11.30;99.90;;;;;;6123895;23;20175;-46
2021/06/14 08:31:26;;;;;;;1999.90;999.90;;;11.20;99.90;;;;;;6124104;23;20159;-53
2021/06/14 08:33:53;;;;;;;1999.90;999.90;;;11.40;99.90;;;;;;6123875;23;20147;-44
2021/06/14 08:36:22;;;;;;;1999.90;999.90;;;11.50;99.90;;;;;;6123366;23;20162;-46
2021/06/14 08:38:49;;;;;;;1999.90;999.90;;;11.60;99.90;;;;;;6124031;23;20620;-47
2021/06/14 08:41:22;;;;;;;1999.90;999.90;;;11.70;99.90;;;;;;6123232;23;20462;-46
2021/06/14 08:43:52;;;;;;;1999.90;999.90;;;11.90;99.90;;;;;;6123754;23;20155;-45
2021/06/14 08:46:20;;;;;;;1999.90;999.90;;;12.10;99.90;;;;;;6124007;23;20202;-47
2021/06/14 08:48:49;;;;;;;1999.90;999.90;;;12.30;99.90;;;;;;6123558;23;20234;-53
2021/06/14 08:51:16;;;;;;;1999.90;999.90;;;13.00;99.90;;;;;;6097880;23;20163;-48
2021/06/14 08:53:44;;;;;;;1999.90;999.90;;;13.70;99.90;;;;;;6123943;23;20217;-56
2021/06/14 08:56:12;;;;;;;1999.90;999.90;;;13.90;99.90;;;;;;6123410;23;20151;-48
2021/06/14 08:58:39;;;;;;;1999.90;999.90;;;14.10;99.90;;;;;;6124053;23;20152;-47
2021/06/14 09:01:07;;;;;;;1999.90;999.90;;;14.30;99.90;;;;;;6098105;23;20199;-47
2021/06/14 09:03:34;;;;;;;1999.90;999.90;;;14.40;99.90;;;;;;6097191;23;20540;-48
2021/06/14 09:06:01;;;;;;;1999.90;999.90;;;14.70;99.90;;;;;;6123034;23;20578;-44
2021/06/14 09:08:28;;;;;;;1999.90;999.90;;;14.70;99.90;;;;;;6122787;23;20155;-54
2021/06/14 09:11:00;;;;;;;1999.90;999.90;;;15.10;99.90;;;;;;6123705;23;20150;-48
2021/06/14 09:13:33;;;;;;;1999.90;999.90;;;15.70;99.90;;;;;;6098198;23;20578;-51
2021/06/14 09:16:21;;;;;;;1999.90;999.90;;;15.90;99.90;;;;;;6123040;23;20143;-47
2021/06/14 09:18:50;;;;;;;1999.90;999.90;;;16.20;99.90;;;;;;6123554;23;20169;-50
2021/06/14 09:21:19;;;;;;;1999.90;999.90;;;16.30;99.90;;;;;;6123726;23;20151;-46
2021/06/14 09:23:54;;;;;;;1999.90;999.90;;;16.10;99.90;;;;;;6122612;23;20179;-44
2021/06/14 09:26:34;;;;;;;1999.90;999.90;;;15.80;99.90;;;;;;6123330;23;20159;-46
2021/06/14 09:29:15;;;;;;;1999.90;999.90;;;15.50;99.90;;;;;;6123937;23;20146;-47
2021/06/14 09:31:56;;;;;;;1999.90;999.90;;;15.70;99.90;;;;;;6123273;23;20163;-42
2021/06/14 09:34:36;;;;;;;1999.90;999.90;;;15.60;99.90;;;;;;6122104;23;20155;-42
2021/06/14 09:37:09;;;;;;;1999.90;999.90;;;15.50;99.90;;;;;;6123434;23;20233;-49
2021/06/14 09:39:44;;;;;;;1999.90;999.90;;;15.50;99.90;;;;;;6123539;23;20558;-50
2021/06/14 09:42:20;;;;;;;1999.90;999.90;;;15.50;99.90;;;;;;6123178;23;20684;-47
2021/06/14 09:44:49;;;;;;;1999.90;999.90;;;15.40;99.90;;;;;;6122900;23;20162;-47
2021/06/14 09:47:17;;;;;;;1999.90;999.90;;;15.80;99.90;;;;;;6123218;23;20147;-59
2021/06/14 09:49:58;;;;;;;1999.90;999.90;;;16.00;99.90;;;;;;6123264;23;20182;-56
2021/06/14 09:52:25;;;;;;;1999.90;999.90;;;16.70;99.90;;;;;;6122916;23;20190;-55
2021/06/14 09:55:07;;;;;;;1999.90;999.90;;;17.10;99.90;;;;;;6121854;23;20151;-57
2021/06/14 09:57:37;;;;;;;1999.90;999.90;;;17.50;99.90;;;;;;6119915;23;20161;-48
2021/06/14 10:00:11;;;;;;;1999.90;999.90;;;17.90;99.90;;;;;;6121593;23;20783;-50
2021/06/14 10:02:38;;;;;;;1999.90;999.90;;;18.30;99.90;;;;;;6121019;23;20186;-56
2021/06/14 10:05:25;;;;;;;1999.90;999.90;;;18.50;99.70;;;;;;6122604;23;20147;-46
2021/06/14 10:07:55;;;;;;;1999.90;999.90;;;18.50;99.10;;;;;;6122550;23;20561;-51
2021/06/14 10:10:29;;;;;;;1999.90;999.90;;;18.50;98.50;;;;;;6096095;23;20155;-49
2021/06/14 10:12:58;;;;;;;1999.90;999.90;;;18.60;98.70;;;;;;6096761;23;20158;-47
2021/06/14 10:15:33;;;;;;;1999.90;999.90;;;18.40;97.40;;;;;;6122567;23;20147;-43
2021/06/14 10:18:02;;;;;;;1999.90;999.90;;;18.40;98.80;;;;;;6122399;23;20155;-44
2021/06/14 10:20:30;;;;;;;1999.90;999.90;;;18.60;98.00;;;;;;6120953;23;20151;-44
2021/06/14 10:23:00;;;;;;;1999.90;999.90;;;18.60;98.40;;;;;;6122322;23;20182;-42
2021/06/14 10:25:27;;;;;;;1999.90;999.90;;;18.60;97.80;;;;;;6096966;23;20223;-43
2021/06/14 10:27:55;;;;;;;1999.90;999.90;;;18.40;98.60;;;;;;6122961;23;20166;-55
2021/06/14 10:30:25;;;;;;;1999.90;999.90;;;18.70;98.00;;;;;;6122943;23;20780;-49
2021/06/14 10:32:54;;;;;;;1999.90;999.90;;;19.10;97.10;;;;;;6123438;23;20147;-46
2021/06/14 10:35:21;;;;;;;1999.90;999.90;;;19.30;96.40;;;;;;6123101;23;20202;-45
2021/06/14 10:37:55;;;;;;;1999.90;999.90;;;19.40;94.60;;;;;;6122354;23;20159;-46
2021/06/14 10:40:26;;;;;;;1999.90;999.90;;;18.80;96.10;;;;;;6123224;23;20135;-45
2021/06/14 10:42:58;;;;;;;1999.90;999.90;;;18.60;97.80;;;;;;6122766;23;20318;-51
2021/06/14 10:45:28;;;;;;;1999.90;999.90;;;19.00;97.20;;;;;;6122344;23;20302;-50
2021/06/14 10:47:57;;;;;;;1999.90;999.90;;;18.90;95.70;;;;;;6122912;23;20159;-42
2021/06/14 10:50:26;;;;;;;1999.90;999.90;;;19.00;96.10;;;;;;6122851;23;20493;-44
2021/06/14 10:52:55;;;;;;;1999.90;999.90;;;19.20;95.80;;;;;;6122279;23;20187;-48
2021/06/14 10:55:31;;;;;;;1999.90;999.90;;;19.20;94.80;;;;;;6097757;23;20155;-44
2021/06/14 10:57:59;;;;;;;1999.90;999.90;;;18.90;94.20;;;;;;6122429;23;20150;-45
2021/06/14 11:00:31;;;;;;;1999.90;999.90;;;19.20;94.40;;;;;;6122494;23;20151;-48
2021/06/14 11:03:00;;;;;;;1999.90;999.90;;;19.40;94.70;;;;;;6122477;23;20824;-46
2021/06/14 11:05:41;;;;;;;1999.90;999.90;;;19.30;94.00;;;;;;6122712;23;20178;-46
2021/06/14 11:08:19;;;;;;;1999.90;999.90;;;19.50;94.50;;;;;;6122599;23;20148;-48
2021/06/14 11:11:00;;;;;;;1999.90;999.90;;;19.60;93.70;;;;;;6122179;23;20144;-51
2021/06/14 11:13:28;;;;;;;1999.90;999.90;;;20.00;93.10;;;;;;6094800;23;20210;-43
2021/06/14 11:16:01;;;;;;;1999.90;999.90;;;19.60;92.10;;;;;;6095991;23;20152;-50
2021/06/14 11:18:33;;;;;;;1999.90;999.90;;;19.10;92.70;;;;;;6120761;23;20598;-42
2021/06/14 11:21:14;;;;;;;1999.90;999.90;;;19.20;94.00;;;;;;6120279;23;20159;-40
2021/06/14 11:23:43;;;;;;;1999.90;999.90;;;19.10;94.10;;;;;;6120948;23;20193;-42
2021/06/14 11:26:12;;;;;;;1999.90;999.90;;;19.20;93.60;;;;;;6094532;23;20162;-40
2021/06/14 11:28:46;;;;;;;1999.90;999.90;;;19.30;94.10;;;;;;6123487;23;20167;-41
2021/06/14 11:31:24;;;;;;;1999.90;999.90;;;19.60;93.50;;;;;;6125448;23;20407;-41
2021/06/14 11:33:55;;;;;;;1999.90;999.90;;;19.70;92.70;;;;;;6125098;23;20272;-49
2021/06/14 11:36:33;;;;;;;1999.90;999.90;;;19.60;92.20;;;;;;6099701;23;20152;-45
2021/06/14 11:39:13;;;;;;;1999.90;999.90;;;19.60;93.20;;;;;;6125055;23;20147;-44
2021/06/14 11:41:40;;;;;;;1999.90;999.90;;;19.60;93.40;;;;;;6098757;23;20237;-57
2021/06/14 11:44:30;;;;;;;1999.90;999.90;;;19.50;94.00;;;;;;6125257;23;20156;-51
2021/06/14 11:47:15;;;;;;;1999.90;999.90;;;19.30;93.60;;;;;;6123932;23;20148;-45
2021/06/14 11:49:47;;;;;;;1999.90;999.90;;;19.30;94.90;;;;;;6120626;23;20217;-53
2021/06/14 11:52:35;;;;;;;1999.90;999.90;;;19.10;94.90;;;;;;6098163;23;20641;-45
2021/06/14 11:55:11;;;;;;;1999.90;999.90;;;18.90;94.50;;;;;;6124083;23;20478;-47
2021/06/14 11:57:46;;;;;;;1999.90;999.90;;;18.80;96.10;;;;;;6099134;23;20146;-50
2021/06/14 12:00:51;;;;;;;1999.90;999.90;;;18.80;95.50;;;;;;6124176;23;20264;-49
2021/06/14 12:03:26;;;;;;;1999.90;999.90;;;18.80;95.50;;;;;;6118858;23;20194;-51
2021/06/14 12:05:55;;;;;;;1999.90;999.90;;;18.90;94.80;;;;;;6124396;23;20443;-46
2021/06/14 12:08:27;;;;;;;1999.90;999.90;;;18.80;94.90;;;;;;6124069;23;20151;-49
2021/06/14 12:11:06;;;;;;;1999.90;999.90;;;18.90;94.70;;;;;;6099181;23;20155;-48
2021/06/14 12:13:33;;;;;;;1999.90;999.90;;;18.90;94.90;;;;;;6123514;23;20237;-51
2021/06/14 12:16:00;;;;;;;1999.90;999.90;;;18.90;95.80;;;;;;6124142;23;20211;-48
2021/06/14 12:18:30;;;;;;;1999.90;999.90;;;18.90;96.50;;;;;;6123991;23;20375;-45
2021/06/14 12:21:00;;;;;;;1999.90;999.90;;;18.90;94.80;;;;;;6099202;23;20189;-41
2021/06/14 12:23:36;;;;;;;1999.90;999.90;;;18.90;94.80;;;;;;6123960;23;20206;-43
2021/06/14 12:26:12;;;;;;;1999.90;999.90;;;18.90;94.80;;;;;;6124370;23;20142;-48
2021/06/14 12:28:41;;;;;;;1999.90;999.90;;;19.00;95.10;;;;;;6122828;23;20609;-46
2021/06/14 12:31:11;;;;;;;1999.90;999.90;;;19.00;94.90;;;;;;6123476;23;20155;-50
2021/06/14 12:33:40;;;;;;;1999.90;999.90;;;18.90;93.80;;;;;;6124254;23;20210;-48
2021/06/14 12:36:09;;;;;;;1999.90;999.90;;;18.90;93.80;;;;;;6124084;23;20151;-53